Time;durP1;ratioP1;P1;durP2;ratioP2;P2;SDS_P1;SDS_P2;PMS_P1;PMS_P2;Temp;Humidity;BMP_temperature;BMP_pressure;BME280_temperature;BME280_humidity;BME280_pressure;Samples;Min_cycle;Max_cycle;Signal;HPM_P1;HPM_P2
2021/07/03 00:00:57;;;;;;;5.90;5.07;;;14.00;99.90;;;;;;5086165;28;20180;-82
2021/07/03 00:03:23;;;;;;;6.43;5.00;;;14.00;99.90;;;;;;5086762;28;20169;-82
2021/07/03 00:05:49;;;;;;;7.20;5.57;;;14.00;99.90;;;;;;5088024;28;20200;-82
2021/07/03 00:08:15;;;;;;;8.07;5.50;;;14.00;99.90;;;;;;5077062;28;20205;-82
2021/07/03 00:10:41;;;;;;;7.27;5.27;;;14.00;99.90;;;;;;5080323;28;20153;-82
2021/07/03 00:13:07;;;;;;;7.40;5.37;;;14.00;99.90;;;;;;5084927;28;20185;-82
2021/07/03 00:15:33;;;;;;;7.53;5.00;;;13.90;99.90;;;;;;5084023;28;20176;-82
2021/07/03 00:17:59;;;;;;;7.80;5.20;;;13.90;99.90;;;;;;5082327;28;20226;-82
2021/07/03 00:20:25;;;;;;;7.13;5.30;;;13.80;99.90;;;;;;5082004;28;20702;-82
2021/07/03 00:22:52;;;;;;;8.50;5.20;;;13.70;99.90;;;;;;5082682;28;20618;-82
2021/07/03 00:25:18;;;;;;;6.97;5.30;;;13.60;99.90;;;;;;5082648;28;20234;-82
2021/07/03 00:27:43;;;;;;;10.50;5.13;;;13.60;99.90;;;;;;5082126;28;20200;-82
2021/07/03 00:30:10;;;;;;;8.43;5.10;;;13.60;99.90;;;;;;5083688;28;20176;-82
2021/07/03 00:32:36;;;;;;;6.90;5.70;;;13.60;99.90;;;;;;5083012;28;20515;-82
2021/07/03 00:35:03;;;;;;;8.30;5.70;;;13.60;99.90;;;;;;5084708;28;20182;-82
2021/07/03 00:37:29;;;;;;;8.03;5.33;;;13.60;99.90;;;;;;5084969;28;20169;-82
2021/07/03 00:39:55;;;;;;;7.93;5.57;;;13.60;99.90;;;;;;5084154;28;20233;-82
2021/07/03 00:42:22;;;;;;;9.13;4.97;;;13.60;99.90;;;;;;5084024;28;20206;-82
2021/07/03 00:44:48;;;;;;;7.93;5.97;;;13.50;99.90;;;;;;5084180;28;20635;-82
2021/07/03 00:47:14;;;;;;;9.20;5.67;;;13.50;99.90;;;;;;5091681;28;20179;-82
2021/07/03 00:49:40;;;;;;;7.23;5.57;;;13.40;99.90;;;;;;5092851;28;20269;-83
2021/07/03 00:52:08;;;;;;;7.67;5.90;;;13.30;99.90;;;;;;5085480;28;20183;-82
2021/07/03 00:54:38;;;;;;;8.33;6.37;;;13.30;99.90;;;;;;5083746;28;20175;-82
2021/07/03 00:57:06;;;;;;;7.47;5.67;;;13.30;99.90;;;;;;5082975;28;20197;-82
2021/07/03 00:59:37;;;;;;;12.70;6.27;;;13.20;99.90;;;;;;5084611;28;20206;-82
2021/07/03 01:02:04;;;;;;;8.10;5.83;;;13.20;99.90;;;;;;5083564;28;20177;-82
2021/07/03 01:04:30;;;;;;;9.37;6.60;;;13.20;99.90;;;;;;5083397;28;20534;-82
2021/07/03 01:06:57;;;;;;;7.50;6.13;;;13.20;99.90;;;;;;5084230;28;20177;-83
2021/07/03 01:09:23;;;;;;;8.93;6.23;;;13.20;99.90;;;;;;5089480;28;20216;-82
2021/07/03 01:11:49;;;;;;;8.47;5.70;;;13.20;99.90;;;;;;5079468;28;20185;-82
2021/07/03 01:14:14;;;;;;;7.90;5.97;;;13.20;99.90;;;;;;5079646;28;20576;-82
2021/07/03 01:16:43;;;;;;;9.43;6.37;;;13.20;99.90;;;;;;5081333;28;20197;-82
2021/07/03 01:19:08;;;;;;;7.77;5.87;;;13.10;99.90;;;;;;5078733;28;20224;-82
2021/07/03 01:21:34;;;;;;;7.73;6.03;;;13.10;99.90;;;;;;5078737;28;20207;-82
2021/07/03 01:24:00;;;;;;;8.50;6.13;;;13.10;99.90;;;;;;5079361;28;20642;-82
2021/07/03 01:26:25;;;;;;;9.53;6.80;;;13.00;99.90;;;;;;5078791;28;20185;-82
2021/07/03 01:28:51;;;;;;;8.93;6.30;;;13.00;99.90;;;;;;5080288;28;20740;-82
2021/07/03 01:31:17;;;;;;;9.50;6.90;;;12.90;99.90;;;;;;5079046;28;20638;-82
2021/07/03 01:33:44;;;;;;;7.50;6.70;;;12.90;99.90;;;;;;5079434;28;20184;-82
2021/07/03 01:36:10;;;;;;;8.93;6.17;;;12.90;99.90;;;;;;5079976;28;20752;-82
2021/07/03 01:38:35;;;;;;;10.13;6.43;;;12.80;99.90;;;;;;5079506;28;20228;-82
2021/07/03 01:41:02;;;;;;;8.33;6.23;;;12.80;99.90;;;;;;5080552;28;20173;-82
2021/07/03 01:43:28;;;;;;;8.77;6.40;;;12.70;99.90;;;;;;5079102;28;20185;-82
2021/07/03 01:45:55;;;;;;;9.17;6.60;;;12.70;99.90;;;;;;5079827;28;20273;-82
2021/07/03 01:48:24;;;;;;;8.47;6.13;;;12.70;99.90;;;;;;5080846;28;20200;-82
2021/07/03 01:50:50;;;;;;;12.37;6.20;;;12.70;99.90;;;;;;5079178;28;20641;-82
2021/07/03 01:53:16;;;;;;;9.93;6.90;;;12.60;99.90;;;;;;5079729;28;20184;-82
2021/07/03 01:55:41;;;;;;;9.87;5.93;;;12.60;99.90;;;;;;5079415;28;20173;-82
2021/07/03 01:58:07;;;;;;;8.27;5.80;;;12.50;99.90;;;;;;5080384;28;20559;-82
2021/07/03 02:00:32;;;;;;;10.20;6.33;;;12.40;99.90;;;;;;5080537;28;20180;-82
2021/07/03 02:02:58;;;;;;;9.37;6.33;;;12.30;99.90;;;;;;5082224;28;20183;-82
2021/07/03 02:05:24;;;;;;;8.43;6.77;;;12.20;99.90;;;;;;5085064;28;20189;-82
2021/07/03 02:07:49;;;;;;;10.20;6.70;;;12.10;99.90;;;;;;5084822;28;20190;-82
2021/07/03 02:10:15;;;;;;;8.63;6.83;;;12.10;99.90;;;;;;5085807;28;20245;-82
2021/07/03 02:12:41;;;;;;;11.97;7.27;;;12.10;99.90;;;;;;5089604;28;20165;-81
2021/07/03 02:15:08;;;;;;;12.07;7.07;;;12.00;99.90;;;;;;5082779;28;20604;-82
2021/07/03 02:17:34;;;;;;;9.50;7.07;;;12.10;99.90;;;;;;5083866;28;20537;-81
2021/07/03 02:20:00;;;;;;;9.27;6.37;;;12.00;99.90;;;;;;5082014;28;20197;-82
2021/07/03 02:22:25;;;;;;;8.37;6.30;;;12.00;99.90;;;;;;5082866;28;20248;-81
2021/07/03 02:24:51;;;;;;;8.03;6.40;;;12.00;99.90;;;;;;5082646;28;20210;-82
2021/07/03 02:27:17;;;;;;;8.00;6.53;;;11.90;99.90;;;;;;5085272;28;20196;-81
2021/07/03 02:29:43;;;;;;;8.33;7.00;;;11.90;99.90;;;;;;5079164;28;20724;-81
2021/07/03 02:32:08;;;;;;;8.17;6.50;;;11.90;99.90;;;;;;5079968;28;20169;-81
2021/07/03 02:34:34;;;;;;;9.00;6.73;;;11.90;99.90;;;;;;5079517;28;20177;-81
2021/07/03 02:37:00;;;;;;;10.63;7.10;;;11.90;99.90;;;;;;5078270;28;20179;-81
2021/07/03 02:39:26;;;;;;;9.57;6.20;;;11.80;99.90;;;;;;5091205;28;20201;-82
2021/07/03 02:41:51;;;;;;;10.67;6.63;;;11.80;99.90;;;;;;5080914;28;20226;-81
2021/07/03 02:44:17;;;;;;;8.50;6.50;;;11.80;99.90;;;;;;5081293;28;20176;-81
2021/07/03 02:46:43;;;;;;;9.43;6.40;;;11.80;99.90;;;;;;5080901;28;20520;-81
2021/07/03 02:49:08;;;;;;;9.50;6.70;;;11.80;99.90;;;;;;5080713;28;20561;-82
2021/07/03 02:51:34;;;;;;;8.33;6.67;;;11.80;99.90;;;;;;5080892;28;20174;-82
2021/07/03 02:54:00;;;;;;;8.27;6.33;;;11.80;99.90;;;;;;5082823;28;20239;-82
2021/07/03 02:56:25;;;;;;;10.17;7.17;;;11.70;99.90;;;;;;5082094;28;20173;-81
2021/07/03 02:58:51;;;;;;;9.17;7.10;;;11.70;99.90;;;;;;5081255;28;20193;-81
2021/07/03 03:01:17;;;;;;;8.90;6.60;;;11.70;99.90;;;;;;5080627;28;20191;-81
2021/07/03 03:03:43;;;;;;;9.10;6.50;;;11.70;99.90;;;;;;5082344;28;20176;-81
2021/07/03 03:06:12;;;;;;;9.77;6.47;;;11.70;99.90;;;;;;5082256;28;20192;-81
2021/07/03 03:08:38;;;;;;;7.63;6.27;;;11.70;99.90;;;;;;5081664;28;20204;-81
2021/07/03 03:11:03;;;;;;;9.73;6.67;;;11.60;99.90;;;;;;5081878;28;20653;-81
2021/07/03 03:13:29;;;;;;;10.23;6.57;;;11.60;99.90;;;;;;5082085;28;20169;-81
2021/07/03 03:15:54;;;;;;;8.00;5.97;;;11.60;99.90;;;;;;5079452;28;20176;-81
2021/07/03 03:18:20;;;;;;;10.53;6.47;;;11.50;99.90;;;;;;5081806;28;20202;-81
2021/07/03 03:20:46;;;;;;;9.27;6.90;;;11.50;99.90;;;;;;5082201;28;20199;-81
2021/07/03 03:23:11;;;;;;;9.00;6.30;;;11.40;99.90;;;;;;5080697;28;20239;-82
2021/07/03 03:25:37;;;;;;;9.77;6.20;;;11.40;99.90;;;;;;5080703;28;20191;-81
2021/07/03 03:28:03;;;;;;;10.53;6.77;;;11.40;99.90;;;;;;5081329;28;20240;-81
2021/07/03 03:30:29;;;;;;;12.30;6.47;;;11.50;99.90;;;;;;5080240;28;20181;-82
2021/07/03 03:32:54;;;;;;;9.90;6.43;;;11.40;99.90;;;;;;5081447;28;20181;-81
2021/07/03 03:35:20;;;;;;;10.27;6.93;;;11.40;99.90;;;;;;5080538;28;20176;-81
2021/07/03 03:37:46;;;;;;;9.73;6.50;;;11.30;99.90;;;;;;5082486;28;20177;-81
2021/07/03 03:40:12;;;;;;;8.93;6.53;;;11.30;99.90;;;;;;5080307;28;20182;-81
2021/07/03 03:42:37;;;;;;;9.03;6.87;;;11.40;99.90;;;;;;5081640;28;20187;-81
2021/07/03 03:45:05;;;;;;;7.87;6.03;;;11.40;99.90;;;;;;5082819;28;20227;-82
2021/07/03 03:47:31;;;;;;;10.13;6.77;;;11.40;99.90;;;;;;5081162;28;20185;-81
2021/07/03 03:49:56;;;;;;;10.03;6.13;;;11.40;99.90;;;;;;5080557;28;20257;-81
2021/07/03 03:52:22;;;;;;;9.43;6.70;;;11.40;99.90;;;;;;5082104;28;20224;-81
2021/07/03 03:54:48;;;;;;;8.37;5.97;;;11.40;99.90;;;;;;5081362;28;20192;-82
2021/07/03 03:57:29;;;;;;;8.50;6.80;;;11.40;99.90;;;;;;5082047;28;20173;-82
2021/07/03 03:59:56;;;;;;;8.40;5.97;;;11.40;99.90;;;;;;5080964;28;20205;-82
2021/07/03 04:02:23;;;;;;;8.63;5.60;;;11.40;99.90;;;;;;5081128;28;20178;-81
2021/07/03 04:04:52;;;;;;;9.97;6.30;;;11.30;99.90;;;;;;5081242;28;20649;-81
2021/07/03 04:07:18;;;;;;;8.00;6.40;;;11.30;99.90;;;;;;5081520;28;20172;-82
2021/07/03 04:09:44;;;;;;;9.40;6.60;;;11.30;99.90;;;;;;5083156;28;20292;-82
2021/07/03 04:12:10;;;;;;;7.80;6.23;;;11.30;99.90;;;;;;5082432;28;20197;-82
2021/07/03 04:14:35;;;;;;;7.20;5.73;;;11.30;99.90;;;;;;5081986;28;20319;-81
2021/07/03 04:17:01;;;;;;;9.93;6.37;;;11.30;99.90;;;;;;5082252;28;20177;-81
2021/07/03 04:19:27;;;;;;;7.40;5.83;;;11.40;99.90;;;;;;5083810;28;20683;-81
2021/07/03 04:21:53;;;;;;;7.20;5.77;;;11.30;99.90;;;;;;5083239;28;20178;-81
2021/07/03 04:24:18;;;;;;;8.70;6.10;;;11.40;99.90;;;;;;5084136;28;20293;-81
2021/07/03 04:26:44;;;;;;;8.70;5.43;;;11.30;99.90;;;;;;5085962;28;20175;-82
2021/07/03 04:29:09;;;;;;;6.90;5.83;;;11.40;99.90;;;;;;5087248;28;20209;-82
2021/07/03 04:31:35;;;;;;;7.33;5.90;;;11.30;99.90;;;;;;5084144;28;20190;-82
2021/07/03 04:34:01;;;;;;;7.20;5.10;;;11.30;99.90;;;;;;5081619;28;20251;-81
2021/07/03 04:36:27;;;;;;;7.63;5.87;;;11.40;99.90;;;;;;5079362;28;20615;-81
2021/07/03 04:38:52;;;;;;;6.47;5.37;;;11.40;99.90;;;;;;5080415;28;20541;-81
2021/07/03 04:41:18;;;;;;;6.37;5.10;;;11.40;99.90;;;;;;5079591;28;20639;-82
2021/07/03 04:43:43;;;;;;;7.83;6.13;;;11.40;99.90;;;;;;5079488;28;20196;-81
2021/07/03 04:46:09;;;;;;;8.20;5.57;;;11.40;99.90;;;;;;5079691;28;20190;-82
2021/07/03 04:48:35;;;;;;;7.10;5.40;;;11.40;99.90;;;;;;5081253;28;20208;-82
2021/07/03 04:51:00;;;;;;;9.17;5.33;;;11.40;99.90;;;;;;5082457;28;20240;-82
2021/07/03 04:53:26;;;;;;;7.17;5.43;;;11.50;99.90;;;;;;5083545;28;20169;-81
2021/07/03 04:55:52;;;;;;;6.77;5.23;;;11.50;99.90;;;;;;5081282;28;20176;-82
2021/07/03 04:58:18;;;;;;;8.67;5.60;;;11.60;99.90;;;;;;5083241;28;20197;-82
2021/07/03 05:00:43;;;;;;;6.70;5.20;;;11.60;99.90;;;;;;5083066;28;20179;-82
2021/07/03 05:03:09;;;;;;;7.23;5.37;;;11.70;99.90;;;;;;5082236;28;20205;-82
2021/07/03 05:05:35;;;;;;;8.23;5.37;;;11.70;99.90;;;;;;5085348;28;20181;-81
2021/07/03 05:08:00;;;;;;;6.63;4.97;;;11.80;99.90;;;;;;5077270;28;20231;-82
2021/07/03 05:10:26;;;;;;;7.53;5.13;;;11.80;99.90;;;;;;5076836;28;20185;-82
2021/07/03 05:12:52;;;;;;;7.67;5.27;;;11.90;99.90;;;;;;5078055;28;20179;-82
2021/07/03 05:15:18;;;;;;;8.97;5.27;;;11.90;99.90;;;;;;5090010;28;20180;-82
2021/07/03 05:17:44;;;;;;;6.20;5.43;;;12.00;99.90;;;;;;5081605;28;20198;-82
2021/07/03 05:20:10;;;;;;;6.13;5.20;;;12.10;99.90;;;;;;5082143;28;20203;-82
2021/07/03 05:22:37;;;;;;;9.43;5.20;;;12.10;99.90;;;;;;5081402;28;20222;-83
2021/07/03 05:25:02;;;;;;;5.40;4.70;;;12.20;99.90;;;;;;5081102;28;20177;-82
2021/07/03 05:27:28;;;;;;;8.77;5.13;;;12.30;99.90;;;;;;5082041;28;20603;-82
2021/07/03 05:29:54;;;;;;;6.77;5.30;;;12.40;99.90;;;;;;5081213;28;20244;-81
2021/07/03 05:32:19;;;;;;;7.50;5.43;;;12.50;99.90;;;;;;5083037;28;20221;-82
2021/07/03 05:34:45;;;;;;;7.70;4.40;;;12.50;99.90;;;;;;5081711;28;20263;-82
2021/07/03 05:37:11;;;;;;;7.03;5.00;;;12.60;99.90;;;;;;5083154;28;20661;-82
2021/07/03 05:39:36;;;;;;;6.00;4.77;;;12.70;99.90;;;;;;5080833;28;20561;-82
2021/07/03 05:42:02;;;;;;;6.87;4.40;;;12.80;99.90;;;;;;5083393;28;20176;-82
2021/07/03 05:44:28;;;;;;;6.20;4.97;;;12.90;99.90;;;;;;5083387;28;20539;-82
2021/07/03 05:46:54;;;;;;;6.77;4.63;;;13.00;99.90;;;;;;5082361;28;20263;-82
2021/07/03 05:49:20;;;;;;;6.70;5.27;;;13.20;99.90;;;;;;5083688;28;20204;-82
2021/07/03 05:51:46;;;;;;;5.80;4.60;;;13.30;99.90;;;;;;5082597;28;20218;-82
2021/07/03 05:54:13;;;;;;;5.87;4.57;;;13.40;99.90;;;;;;5082240;28;20338;-82
2021/07/03 05:56:38;;;;;;;6.27;4.93;;;13.50;99.90;;;;;;5082354;28;20180;-82
2021/07/03 05:59:04;;;;;;;9.03;5.00;;;13.60;99.90;;;;;;5081963;28;20204;-82
2021/07/03 06:01:30;;;;;;;8.40;4.67;;;13.70;99.90;;;;;;5081039;28;20181;-82
2021/07/03 06:03:56;;;;;;;6.20;4.37;;;13.90;99.90;;;;;;5083418;28;20191;-81
2021/07/03 06:06:21;;;;;;;5.93;4.53;;;13.90;99.90;;;;;;5081915;28;20184;-82
2021/07/03 06:08:47;;;;;;;6.73;4.90;;;14.10;99.90;;;;;;5081411;28;20287;-82
2021/07/03 06:11:15;;;;;;;4.77;4.03;;;14.20;99.90;;;;;;5083762;28;20169;-81
2021/07/03 06:13:41;;;;;;;5.90;4.27;;;14.30;99.90;;;;;;5081150;28;20686;-82
2021/07/03 06:16:06;;;;;;;5.00;4.20;;;14.40;99.90;;;;;;5081248;28;20201;-82
2021/07/03 06:18:32;;;;;;;6.10;4.37;;;14.40;99.90;;;;;;5081749;28;20559;-82
2021/07/03 06:20:58;;;;;;;9.10;4.40;;;14.50;99.90;;;;;;5080968;28;20181;-82
2021/07/03 06:23:26;;;;;;;8.33;4.57;;;14.50;99.90;;;;;;5081360;28;20264;-82
2021/07/03 06:25:52;;;;;;;7.87;5.00;;;14.60;99.90;;;;;;5081041;28;20185;-82
2021/07/03 06:28:17;;;;;;;5.87;4.37;;;14.70;99.90;;;;;;5081410;28;20216;-82
2021/07/03 06:30:43;;;;;;;5.07;4.30;;;14.70;99.90;;;;;;5081566;28;20202;-82
2021/07/03 06:33:09;;;;;;;8.03;4.77;;;14.80;99.90;;;;;;5082299;28;20178;-82
2021/07/03 06:35:35;;;;;;;5.77;4.47;;;14.90;99.90;;;;;;5082585;28;20230;-82
2021/07/03 06:38:00;;;;;;;5.00;4.00;;;15.00;99.90;;;;;;5083139;28;20181;-82
2021/07/03 06:40:26;;;;;;;5.07;4.57;;;15.10;99.90;;;;;;5084743;28;20188;-82
2021/07/03 06:42:52;;;;;;;6.57;4.67;;;15.20;99.90;;;;;;5080686;28;20231;-83
2021/07/03 06:45:17;;;;;;;4.70;4.10;;;15.30;99.90;;;;;;5082078;28;20166;-83
2021/07/03 06:47:43;;;;;;;7.03;4.73;;;15.40;99.90;;;;;;5082171;28;20180;-83
2021/07/03 06:50:09;;;;;;;5.20;4.27;;;15.60;99.90;;;;;;5082252;28;20204;-83
2021/07/03 06:52:36;;;;;;;6.53;4.57;;;15.70;99.90;;;;;;5085681;28;20224;-82
2021/07/03 06:55:02;;;;;;;6.50;4.70;;;15.80;99.90;;;;;;5085308;28;20181;-82
2021/07/03 06:57:27;;;;;;;4.87;4.27;;;15.90;99.90;;;;;;5085657;28;20169;-82
2021/07/03 06:59:53;;;;;;;6.47;4.97;;;16.00;99.90;;;;;;5087312;28;20207;-82
2021/07/03 07:02:19;;;;;;;5.90;4.23;;;16.10;99.90;;;;;;5083838;28;20185;-83
2021/07/03 07:04:45;;;;;;;4.90;4.13;;;16.20;99.90;;;;;;5083616;28;20185;-83
2021/07/03 07:07:11;;;;;;;7.33;4.43;;;16.30;99.90;;;;;;5082729;28;20183;-83
2021/07/03 07:09:36;;;;;;;7.90;5.00;;;16.40;99.90;;;;;;5084525;28;20216;-83
2021/07/03 07:12:02;;;;;;;6.40;5.00;;;16.50;99.90;;;;;;5082357;28;20173;-83
2021/07/03 07:14:28;;;;;;;10.10;4.80;;;16.50;99.90;;;;;;5080745;28;20181;-83
2021/07/03 07:16:54;;;;;;;7.47;4.57;;;16.60;99.90;;;;;;5083136;28;20204;-83
2021/07/03 07:19:20;;;;;;;4.93;4.27;;;16.70;99.90;;;;;;5082852;28;20204;-82
2021/07/03 07:21:46;;;;;;;5.30;4.80;;;16.80;99.90;;;;;;5081901;28;20666;-82
2021/07/03 07:24:11;;;;;;;6.47;4.70;;;16.90;99.90;;;;;;5082314;28;20187;-82
2021/07/03 07:26:38;;;;;;;6.07;4.90;;;17.10;99.90;;;;;;5079903;28;20184;-82
2021/07/03 07:29:04;;;;;;;5.63;5.03;;;17.10;99.90;;;;;;5077478;28;20287;-79
2021/07/03 07:31:30;;;;;;;7.57;5.53;;;17.30;99.90;;;;;;5076553;28;20177;-79
2021/07/03 07:33:56;;;;;;;6.03;4.60;;;17.40;99.90;;;;;;5077665;28;20177;-79
2021/07/03 07:36:21;;;;;;;7.30;4.43;;;17.60;99.90;;;;;;5088123;28;20181;-79
2021/07/03 07:38:47;;;;;;;4.77;4.27;;;17.80;99.90;;;;;;5079548;28;20544;-79
2021/07/03 07:41:15;;;;;;;6.57;4.33;;;18.00;99.90;;;;;;5080038;28;20677;-79
2021/07/03 07:43:42;;;;;;;6.13;4.40;;;18.20;99.90;;;;;;5077907;28;20184;-79
2021/07/03 07:46:08;;;;;;;4.97;4.07;;;18.40;99.90;;;;;;5077999;28;20177;-79
2021/07/03 07:48:34;;;;;;;4.93;4.37;;;18.50;99.90;;;;;;5076510;28;20205;-79
2021/07/03 07:51:01;;;;;;;4.50;4.07;;;18.60;99.90;;;;;;5076620;28;20187;-79
2021/07/03 07:53:30;;;;;;;7.33;4.20;;;18.70;99.90;;;;;;5077985;28;20174;-79
2021/07/03 07:55:57;;;;;;;5.87;4.27;;;18.80;99.90;;;;;;5078606;28;20242;-81
2021/07/03 07:58:24;;;;;;;6.77;4.23;;;18.90;99.90;;;;;;5077972;28;20651;-79
2021/07/03 08:00:50;;;;;;;4.90;4.20;;;19.00;99.90;;;;;;5076649;28;20620;-79
2021/07/03 08:03:16;;;;;;;6.67;4.10;;;19.10;99.90;;;;;;5075589;28;20737;-79
2021/07/03 08:05:43;;;;;;;6.33;4.33;;;19.20;99.90;;;;;;5077399;28;20281;-79
2021/07/03 08:08:09;;;;;;;7.43;3.87;;;19.30;99.90;;;;;;5076754;28;20608;-78
2021/07/03 08:10:36;;;;;;;9.23;4.47;;;19.40;99.90;;;;;;5077283;28;20683;-79
2021/07/03 08:13:02;;;;;;;6.83;4.30;;;19.60;99.90;;;;;;5077490;28;20181;-79
2021/07/03 08:15:28;;;;;;;4.70;4.20;;;19.50;99.90;;;;;;5076615;28;20173;-78
2021/07/03 08:17:54;;;;;;;4.30;3.90;;;19.60;99.90;;;;;;5075656;28;20206;-81
2021/07/03 08:20:21;;;;;;;5.33;3.53;;;19.60;99.90;;;;;;5077733;28;20227;-81
2021/07/03 08:22:49;;;;;;;4.93;4.17;;;19.70;99.90;;;;;;5078312;28;20178;-81
2021/07/03 08:25:17;;;;;;;5.40;4.13;;;19.70;99.90;;;;;;5079041;28;20170;-81
2021/07/03 08:27:43;;;;;;;4.87;4.10;;;19.90;99.90;;;;;;5076803;28;20206;-82
2021/07/03 08:30:09;;;;;;;4.63;3.70;;;20.00;99.90;;;;;;5077335;28;20206;-81
2021/07/03 08:32:35;;;;;;;6.70;3.77;;;20.10;99.90;;;;;;5078124;28;20264;-82
2021/07/03 08:35:01;;;;;;;4.47;3.40;;;20.30;99.90;;;;;;5078366;28;20263;-82
2021/07/03 08:37:26;;;;;;;3.97;3.20;;;20.40;99.90;;;;;;5078356;28;20509;-82
2021/07/03 08:39:52;;;;;;;7.63;4.07;;;20.60;99.90;;;;;;5081801;28;20203;-81
2021/07/03 08:42:18;;;;;;;4.60;3.60;;;20.70;99.90;;;;;;5079959;28;20180;-82
2021/07/03 08:44:47;;;;;;;4.07;3.67;;;20.70;99.90;;;;;;5082754;28;20181;-81
2021/07/03 08:47:14;;;;;;;4.13;3.73;;;20.80;99.90;;;;;;5075837;28;20205;-81
2021/07/03 08:49:41;;;;;;;4.80;3.10;;;21.00;99.90;;;;;;5077175;28;20201;-82
2021/07/03 08:52:07;;;;;;;4.77;4.10;;;21.20;99.90;;;;;;5077694;28;20173;-81
2021/07/03 08:54:33;;;;;;;4.10;3.50;;;21.30;99.90;;;;;;5076673;28;20180;-81
2021/07/03 08:57:00;;;;;;;4.70;3.13;;;21.40;99.90;;;;;;5075441;28;20173;-79
2021/07/03 08:59:28;;;;;;;3.60;3.30;;;21.60;99.90;;;;;;5074741;28;20201;-78
2021/07/03 09:01:59;;;;;;;4.40;3.80;;;21.70;99.90;;;;;;5075956;28;20176;-78
2021/07/03 09:04:42;;;;;;;4.10;3.70;;;22.00;99.90;;;;;;5076275;28;20180;-79
2021/07/03 09:07:18;;;;;;;3.60;3.30;;;22.30;99.90;;;;;;5075562;28;20168;-79
2021/07/03 09:09:51;;;;;;;4.20;3.80;;;22.40;99.90;;;;;;5076133;28;20287;-80
2021/07/03 09:12:29;;;;;;;5.00;3.73;;;22.60;99.90;;;;;;5076112;28;20179;-80
2021/07/03 09:14:55;;;;;;;5.97;3.67;;;22.80;99.90;;;;;;5074616;28;20165;-79
2021/07/03 09:17:21;;;;;;;6.00;3.57;;;23.00;99.90;;;;;;5076996;28;20169;-81
2021/07/03 09:19:53;;;;;;;5.77;3.63;;;23.00;99.90;;;;;;5077001;28;20246;-81
2021/07/03 09:22:19;;;;;;;3.93;3.30;;;23.10;99.90;;;;;;5076550;28;20197;-81
2021/07/03 09:24:45;;;;;;;5.40;3.80;;;23.30;99.90;;;;;;5079259;28;20177;-82
2021/07/03 09:27:12;;;;;;;4.30;3.90;;;23.50;99.90;;;;;;5077320;28;20207;-80
2021/07/03 09:29:51;;;;;;;4.20;3.80;;;23.60;99.90;;;;;;5075561;28;20255;-81
2021/07/03 09:32:17;;;;;;;5.17;3.73;;;23.70;99.90;;;;;;5076615;28;20220;-81
2021/07/03 09:34:43;;;;;;;5.00;4.17;;;23.90;99.90;;;;;;5076731;28;20181;-81
2021/07/03 09:37:12;;;;;;;6.33;3.70;;;24.00;99.90;;;;;;5075672;28;20240;-81
2021/07/03 09:39:38;;;;;;;4.00;3.60;;;24.00;99.90;;;;;;5075458;28;20693;-81
2021/07/03 09:42:13;;;;;;;4.87;3.43;;;24.20;99.90;;;;;;5074090;28;20182;-81
2021/07/03 09:44:39;;;;;;;4.00;3.60;;;24.30;99.90;;;;;;5075138;28;20168;-81
2021/07/03 09:47:04;;;;;;;4.90;3.50;;;24.30;99.90;;;;;;5073333;28;20182;-81
2021/07/03 09:49:30;;;;;;;3.83;3.37;;;24.40;99.90;;;;;;5081732;28;20184;-81
2021/07/03 09:51:59;;;;;;;4.27;3.80;;;24.30;99.90;;;;;;5080351;28;20666;-82
2021/07/03 09:54:27;;;;;;;4.23;3.83;;;24.30;99.90;;;;;;5077126;28;20173;-82
2021/07/03 09:56:59;;;;;;;3.77;3.47;;;24.40;99.90;;;;;;5077505;28;20564;-82
2021/07/03 09:59:32;;;;;;;4.20;3.80;;;24.60;99.90;;;;;;5077927;28;20225;-82
2021/07/03 10:01:59;;;;;;;4.33;3.93;;;24.60;99.90;;;;;;5077475;28;20175;-82
2021/07/03 10:04:25;;;;;;;4.30;3.90;;;24.60;99.90;;;;;;5077837;28;20581;-82
2021/07/03 10:07:03;;;;;;;5.73;3.70;;;24.50;99.90;;;;;;5078467;28;20189;-82
2021/07/03 10:09:50;;;;;;;5.20;3.47;;;24.40;99.90;;;;;;5076361;28;20299;-82
2021/07/03 10:12:39;;;;;;;4.57;3.83;;;24.50;99.90;;;;;;5077087;28;20255;-82
2021/07/03 10:15:06;;;;;;;3.63;3.20;;;24.60;99.90;;;;;;5078245;28;20184;-82
2021/07/03 10:17:36;;;;;;;3.30;2.97;;;24.60;99.90;;;;;;5078236;28;20218;-83
2021/07/03 10:20:14;;;;;;;3.67;3.30;;;24.70;99.90;;;;;;5081715;28;20267;-81
2021/07/03 10:22:50;;;;;;;3.13;2.83;;;24.80;99.90;;;;;;5075986;28;20189;-81
2021/07/03 10:25:16;;;;;;;6.73;3.50;;;24.90;99.90;;;;;;5078032;28;20185;-82
2021/07/03 10:27:50;;;;;;;4.93;3.40;;;24.90;99.90;;;;;;5079686;28;20225;-82
2021/07/03 10:30:26;;;;;;;4.67;3.47;;;25.20;99.90;;;;;;5079046;28;20237;-82
2021/07/03 10:33:04;;;;;;;3.60;3.03;;;25.50;99.90;;;;;;5081058;28;20203;-82
2021/07/03 10:35:51;;;;;;;4.77;3.67;;;25.70;99.90;;;;;;5079720;28;20171;-82
2021/07/03 10:38:17;;;;;;;3.40;3.10;;;26.00;99.90;;;;;;5081006;28;20201;-82
2021/07/03 10:40:43;;;;;;;3.93;3.07;;;26.10;99.90;;;;;;5081666;28;20171;-82
2021/07/03 10:43:12;;;;;;;3.43;3.10;;;26.10;99.90;;;;;;5080846;28;20231;-79
2021/07/03 10:45:48;;;;;;;3.60;2.53;;;26.00;99.90;;;;;;5084064;28;20172;-82
2021/07/03 10:48:22;;;;;;;2.90;2.70;;;26.10;99.90;;;;;;5080705;28;20192;-82
2021/07/03 10:50:49;;;;;;;4.23;3.00;;;26.30;99.90;;;;;;5079245;28;20218;-82
2021/07/03 10:53:25;;;;;;;4.80;3.10;;;26.20;99.90;;;;;;5079001;28;20173;-82
2021/07/03 10:55:51;;;;;;;3.27;2.97;;;26.40;99.90;;;;;;5079958;28;20175;-82
2021/07/03 10:58:27;;;;;;;4.70;3.47;;;26.60;99.90;;;;;;5078654;28;20574;-81
2021/07/03 11:00:53;;;;;;;4.57;3.60;;;26.80;99.90;;;;;;5077836;28;20197;-81
2021/07/03 11:03:23;;;;;;;4.43;2.87;;;27.00;99.90;;;;;;5078040;28;20749;-81
2021/07/03 11:05:50;;;;;;;4.47;3.37;;;27.20;99.90;;;;;;5078115;28;20672;-82
2021/07/03 11:08:19;;;;;;;3.80;3.33;;;27.20;99.60;;;;;;5079656;28;20209;-82
2021/07/03 11:10:45;;;;;;;5.47;3.63;;;27.30;99.70;;;;;;5078463;28;20175;-81
2021/07/03 11:13:19;;;;;;;4.50;3.47;;;27.30;98.90;;;;;;5079616;28;20172;-82
2021/07/03 11:15:45;;;;;;;2.80;2.60;;;27.40;99.90;;;;;;5079030;28;20195;-82
2021/07/03 11:18:10;;;;;;;7.13;3.00;;;27.30;99.90;;;;;;5079876;28;20670;-82
2021/07/03 11:20:40;;;;;;;3.10;2.83;;;27.40;99.90;;;;;;5078091;28;20511;-82
2021/07/03 11:23:06;;;;;;;3.20;2.90;;;27.50;98.60;;;;;;5079130;28;20173;-82
2021/07/03 11:25:38;;;;;;;3.43;2.73;;;27.60;99.90;;;;;;5078704;28;20177;-79
2021/07/03 11:28:09;;;;;;;3.57;3.00;;;27.90;99.90;;;;;;5077684;28;20189;-79
2021/07/03 11:30:37;;;;;;;3.57;3.13;;;28.10;97.50;;;;;;5078921;28;20660;-79
2021/07/03 11:33:03;;;;;;;3.40;3.10;;;28.10;99.20;;;;;;5077478;28;20265;-79
2021/07/03 11:35:34;;;;;;;2.80;2.60;;;28.10;99.90;;;;;;5077942;28;20274;-82
2021/07/03 11:38:03;;;;;;;3.50;3.07;;;28.50;99.90;;;;;;5078591;28;20204;-82
2021/07/03 11:40:30;;;;;;;6.23;3.00;;;28.70;97.80;;;;;;5077764;28;20223;-82
2021/07/03 11:42:59;;;;;;;3.80;2.97;;;28.90;98.40;;;;;;5079584;28;20180;-78
2021/07/03 11:45:32;;;;;;;4.77;3.23;;;28.90;94.00;;;;;;5076022;28;20273;-78
2021/07/03 11:48:13;;;;;;;3.57;3.07;;;29.30;94.90;;;;;;5077325;28;20175;-78
2021/07/03 11:50:44;;;;;;;3.13;2.83;;;29.40;94.70;;;;;;5074917;28;20320;-76
2021/07/03 11:53:12;;;;;;;3.50;3.20;;;29.70;95.70;;;;;;5075611;28;20168;-77
2021/07/03 11:55:45;;;;;;;3.37;3.00;;;29.90;91.90;;;;;;5076066;28;20256;-77
2021/07/03 11:58:21;;;;;;;4.80;3.17;;;30.00;92.30;;;;;;5074381;28;20202;-76
2021/07/03 12:00:52;;;;;;;4.63;4.10;;;29.80;93.60;;;;;;5075460;28;20170;-76
2021/07/03 12:03:26;;;;;;;3.53;3.23;;;29.60;90.20;;;;;;5075441;28;20179;-77
2021/07/03 12:05:54;;;;;;;3.43;3.13;;;29.50;91.10;;;;;;5078023;28;20181;-77
2021/07/03 12:08:20;;;;;;;3.40;3.03;;;29.50;87.30;;;;;;5080057;28;20224;-77
2021/07/03 12:10:57;;;;;;;3.10;2.80;;;29.40;96.30;;;;;;5075061;28;20168;-76
2021/07/03 12:13:28;;;;;;;3.40;3.10;;;29.80;93.40;;;;;;5075026;28;20165;-76
2021/07/03 12:15:56;;;;;;;5.07;3.47;;;30.20;88.80;;;;;;5075420;28;20257;-76
2021/07/03 12:18:33;;;;;;;4.47;3.00;;;30.20;90.40;;;;;;5073605;28;20192;-77
2021/07/03 12:21:12;;;;;;;3.30;2.83;;;30.30;90.50;;;;;;5075974;28;20559;-79
2021/07/03 12:24:00;;;;;;;2.83;2.63;;;30.30;92.80;;;;;;5078500;28;20173;-79
2021/07/03 12:26:46;;;;;;;3.80;2.73;;;30.40;93.40;;;;;;5075277;28;20219;-77
2021/07/03 12:29:19;;;;;;;3.43;2.73;;;30.20;85.00;;;;;;5076891;28;20212;-78
2021/07/03 12:31:46;;;;;;;3.30;3.00;;;29.70;90.20;;;;;;5074202;28;20251;-77
2021/07/03 12:34:25;;;;;;;4.03;3.00;;;29.20;87.20;;;;;;5075210;28;20181;-74
2021/07/03 12:36:52;;;;;;;3.43;3.00;;;29.50;92.90;;;;;;5075398;28;20187;-75
2021/07/03 12:39:23;;;;;;;3.50;2.93;;;29.40;94.60;;;;;;5074852;28;20194;-76
2021/07/03 12:42:01;;;;;;;3.93;3.20;;;29.50;93.40;;;;;;5074222;28;20178;-75
2021/07/03 12:44:35;;;;;;;3.00;2.80;;;29.60;90.20;;;;;;5074700;28;20615;-78
2021/07/03 12:47:02;;;;;;;3.10;2.90;;;29.60;91.30;;;;;;5075105;28;20163;-75